Shiloh, Georgia
Current Conditions -  °F | °C
As of 2:51 PM on Sunday 25 Jan 2015 (Local Time) from KCSG Reporting Station
Clear Clear  
Wind Chill: 61°   Ceiling: Unl
Heat Index: 61°   Visibility: 10mi
Dew Point: 30°   Wind: 17mph
Humidity: 31%   Direction: 230°SW
Pressure: 29.82"   Gusts: 25mph
Location:  32.81°N, 84.7°W
Report Text: KCSG 251951Z 23015G22KT 10SM CLR 16/M01 A2982 RMK AO2 SLP099 T01611011
Loading
Personal Weather Stations






























Interactive Weather Map New forecast layout! Learn more

10-Day Weather Forecast

Advertisements
Track Severe Weather on mobile